createdAt,value
2023-02-01T00:01:32.658Z,0.45
2023-02-01T00:04:04.001Z,0.41
2023-02-01T00:06:32.556Z,0.70
2023-02-01T00:09:01.025Z,0.66
2023-02-01T00:11:29.326Z,0.63
2023-02-01T00:13:59.002Z,0.59
2023-02-01T00:16:30.808Z,0.60
2023-02-01T00:19:06.845Z,0.35
2023-02-01T00:21:35.657Z,0.63
2023-02-01T00:24:05.445Z,0.59
2023-02-01T00:26:45.296Z,0.69
2023-02-01T00:29:18.643Z,0.41
2023-02-01T00:31:47.482Z,0.41
2023-02-01T00:34:18.153Z,0.70
2023-02-01T00:36:47.414Z,0.74
2023-02-01T00:39:19.092Z,0.82
2023-02-01T00:41:47.674Z,0.48
2023-02-01T00:44:16.139Z,0.93
2023-02-01T00:46:44.474Z,0.93
2023-02-01T00:49:12.771Z,0.74
2023-02-01T00:51:41.065Z,0.66
2023-02-01T00:54:09.079Z,0.95
2023-02-01T00:56:37.514Z,0.96
2023-02-01T00:59:06.076Z,0.93
2023-02-01T01:01:34.565Z,0.68
2023-02-01T01:04:03.149Z,0.89
2023-02-01T01:06:34.558Z,0.83
2023-02-01T01:09:07.034Z,0.77
2023-02-01T01:11:38.556Z,0.80
2023-02-01T01:14:11.706Z,0.85
2023-02-01T01:16:40.618Z,0.86
2023-02-01T01:19:08.994Z,0.92
2023-02-01T01:21:38.622Z,0.93
2023-02-01T01:24:07.476Z,0.96
2023-02-01T01:26:35.832Z,0.99
2023-02-01T01:29:04.974Z,1.01
2023-02-01T01:31:37.651Z,0.62
2023-02-01T01:34:06.236Z,0.59
2023-02-01T01:36:34.539Z,0.82
2023-02-01T01:39:03.244Z,0.81
2023-02-01T01:41:33.979Z,0.54
2023-02-01T01:45:02.694Z,0.91
2023-02-01T01:47:49.224Z,0.86
2023-02-01T01:50:31.613Z,0.84
2023-02-01T01:53:04.575Z,0.47
2023-02-01T01:55:38.259Z,0.96
2023-02-01T01:58:13.237Z,1.01
2023-02-01T02:00:42.511Z,1.02
2023-02-01T02:03:26.975Z,1.13
2023-02-01T02:05:59.959Z,1.08
2023-02-01T02:08:29.312Z,0.85
2023-02-01T02:11:01.402Z,1.08
2023-02-01T02:13:43.211Z,0.78
2023-02-01T02:16:39.070Z,1.07
2023-02-01T02:19:19.024Z,1.13
2023-02-01T02:22:31.907Z,0.93
2023-02-01T02:25:52.443Z,1.10
2023-02-01T02:28:32.172Z,1.19
2023-02-01T02:31:22.057Z,1.27
2023-02-01T02:34:39.780Z,1.38
2023-02-01T02:37:29.095Z,1.42
2023-02-01T02:40:30.909Z,1.43
2023-02-01T02:43:43.947Z,1.40
2023-02-01T02:46:47.952Z,1.43
2023-02-01T02:49:30.586Z,1.42
2023-02-01T02:52:35.749Z,1.54
2023-02-01T02:55:09.743Z,1.65
2023-02-01T02:58:03.831Z,1.59
2023-02-01T03:00:54.031Z,1.37
2023-02-01T03:03:40.939Z,1.58
2023-02-01T03:06:18.979Z,1.49
2023-02-01T03:08:47.012Z,1.53
2023-02-01T03:11:17.097Z,1.64
2023-02-01T03:13:54.266Z,1.58
2023-02-01T03:16:30.535Z,1.58
2023-02-01T03:19:27.577Z,1.61
2023-02-01T03:22:03.855Z,1.64
2023-02-01T03:25:11.088Z,1.33
2023-02-01T03:28:03.866Z,1.62
2023-02-01T03:30:39.271Z,1.29
2023-02-01T03:33:32.437Z,1.26
2023-02-01T03:36:39.201Z,1.51
2023-02-01T03:39:34.009Z,1.49
2023-02-01T03:42:21.606Z,1.38
2023-02-01T03:45:12.089Z,1.28
2023-02-01T03:47:46.345Z,1.36
2023-02-01T03:50:24.227Z,1.06
2023-02-01T03:53:09.951Z,1.43
2023-02-01T03:55:39.133Z,1.29
2023-02-01T03:58:20.322Z,1.24
2023-02-01T04:01:02.542Z,1.46
2023-02-01T04:03:33.768Z,1.35
2023-02-01T04:06:02.041Z,1.54
2023-02-01T04:08:31.207Z,1.52
2023-02-01T04:10:59.368Z,1.53
2023-02-01T04:13:39.583Z,1.50
2023-02-01T04:16:08.446Z,1.33
2023-02-01T04:18:36.985Z,1.49
2023-02-01T04:21:05.233Z,1.47
2023-02-01T04:23:33.568Z,1.48
2023-02-01T04:26:04.119Z,1.30
2023-02-01T04:28:32.935Z,1.01
2023-02-01T04:31:01.149Z,1.26
2023-02-01T04:33:29.852Z,1.25
2023-02-01T04:35:57.790Z,1.24
2023-02-01T04:38:25.895Z,1.20
2023-02-01T04:40:54.333Z,0.79
2023-02-01T04:43:22.344Z,1.39
2023-02-01T04:45:51.905Z,1.48
2023-02-01T04:48:24.848Z,1.44
2023-02-01T04:50:54.009Z,1.54
2023-02-01T04:53:22.117Z,1.28
2023-02-01T04:55:51.358Z,1.25
2023-02-01T04:58:19.611Z,1.37
2023-02-01T05:00:47.935Z,1.63
2023-02-01T05:03:16.470Z,1.65
2023-02-01T05:05:44.816Z,1.64
2023-02-01T05:08:13.155Z,1.66
2023-02-01T05:10:41.110Z,1.63
2023-02-01T05:13:30.120Z,1.66
2023-02-01T05:15:58.212Z,1.63
2023-02-01T05:18:26.905Z,1.53
2023-02-01T05:20:54.927Z,1.54
2023-02-01T05:23:23.217Z,1.45
2023-02-01T05:25:51.445Z,1.56
2023-02-01T05:28:19.579Z,1.63
2023-02-01T05:30:47.847Z,1.64
2023-02-01T05:33:16.325Z,1.37
2023-02-01T05:35:44.879Z,1.61
2023-02-01T05:38:12.941Z,1.57
2023-02-01T05:40:41.368Z,1.60
2023-02-01T05:43:09.645Z,1.64
2023-02-01T05:45:37.799Z,1.40
2023-02-01T05:48:06.186Z,1.68
2023-02-01T05:50:34.199Z,1.64
2023-02-01T05:53:10.564Z,1.61
2023-02-01T05:55:39.291Z,1.55
2023-02-01T05:58:07.279Z,1.57
2023-02-01T06:00:35.744Z,1.58
2023-02-01T06:03:04.491Z,1.26
2023-02-01T06:05:32.474Z,1.57
2023-02-01T06:08:00.536Z,1.57
2023-02-01T06:10:28.848Z,1.50
2023-02-01T06:12:57.304Z,1.61
2023-02-01T06:15:25.481Z,1.32
2023-02-01T06:17:53.678Z,1.61
2023-02-01T06:20:22.391Z,1.68
2023-02-01T06:22:50.955Z,1.63
2023-02-01T06:25:20.502Z,1.66
2023-02-01T06:27:49.474Z,1.74
2023-02-01T06:30:18.116Z,1.82
2023-02-01T06:32:54.924Z,1.48
2023-02-01T06:35:23.122Z,1.83
2023-02-01T06:37:51.939Z,1.52
2023-02-01T06:40:20.443Z,1.87
2023-02-01T06:42:50.634Z,1.60
2023-02-01T06:45:18.981Z,1.62
2023-02-01T06:47:47.097Z,1.90
2023-02-01T06:50:15.649Z,1.90
2023-02-01T06:52:43.686Z,1.56
2023-02-01T06:55:12.003Z,1.90
2023-02-01T06:57:40.374Z,1.88
2023-02-01T07:00:09.933Z,1.98
2023-02-01T07:02:39.384Z,1.98
2023-02-01T07:05:10.330Z,1.95
2023-02-01T07:07:38.473Z,1.74
2023-02-01T07:10:07.165Z,2.04
2023-02-01T07:12:35.611Z,2.04
2023-02-01T07:15:04.857Z,2.06
2023-02-01T07:17:33.075Z,1.80
2023-02-01T07:20:02.708Z,1.91
2023-02-01T07:22:31.055Z,1.68
2023-02-01T07:24:59.501Z,1.93
2023-02-01T07:27:27.626Z,1.95
2023-02-01T07:29:56.709Z,2.04
2023-02-01T07:32:24.996Z,2.07
2023-02-01T07:34:53.050Z,1.83
2023-02-01T07:37:21.054Z,2.09
2023-02-01T07:39:49.508Z,2.14
2023-02-01T07:42:18.157Z,2.09
2023-02-01T07:44:46.495Z,2.19
2023-02-01T07:47:15.242Z,1.38
2023-02-01T07:49:43.231Z,2.22
2023-02-01T07:52:12.336Z,2.28
2023-02-01T07:54:40.735Z,2.34
2023-02-01T07:57:09.966Z,2.10
2023-02-01T07:59:58.885Z,2.10
2023-02-01T08:02:28.193Z,2.30
2023-02-01T08:04:56.580Z,2.13
2023-02-01T08:07:24.785Z,2.41
2023-02-01T08:09:52.843Z,2.35
2023-02-01T08:12:21.013Z,2.42
2023-02-01T08:14:49.189Z,2.48
2023-02-01T08:17:17.956Z,2.54
2023-02-01T08:19:46.118Z,2.59
2023-02-01T08:22:14.421Z,2.62
2023-02-01T08:24:43.104Z,2.74
2023-02-01T08:27:11.487Z,2.85
2023-02-01T08:29:39.604Z,2.92
2023-02-01T08:32:08.092Z,3.09
2023-02-01T08:34:36.149Z,3.17
2023-02-01T08:37:04.192Z,3.21
2023-02-01T08:39:32.427Z,3.07
2023-02-01T08:42:19.306Z,2.94
2023-02-01T08:44:48.285Z,2.91
2023-02-01T08:47:16.489Z,2.66
2023-02-01T08:49:46.383Z,2.02
2023-02-01T08:52:16.008Z,2.88
2023-02-01T08:54:45.199Z,2.78
2023-02-01T08:57:13.545Z,2.80
2023-02-01T08:59:42.178Z,2.61
2023-02-01T09:02:14.963Z,2.85
2023-02-01T09:04:43.533Z,2.60
2023-02-01T09:07:14.148Z,2.61
2023-02-01T09:09:42.823Z,2.83
2023-02-01T09:12:11.412Z,2.60
2023-02-01T09:14:39.895Z,2.53
2023-02-01T09:17:08.550Z,2.39
2023-02-01T09:19:41.044Z,2.84
2023-02-01T09:22:10.281Z,2.78
2023-02-01T09:24:38.990Z,2.83
2023-02-01T09:27:07.034Z,2.84
2023-02-01T09:29:35.685Z,2.84
2023-02-01T09:32:04.904Z,2.87
2023-02-01T09:34:34.903Z,2.93
2023-02-01T09:37:03.952Z,2.91
2023-02-01T09:39:32.207Z,2.91
2023-02-01T09:42:12.299Z,3.02
2023-02-01T09:44:46.628Z,3.06
2023-02-01T09:47:24.635Z,3.09
2023-02-01T09:49:59.806Z,3.12
2023-02-01T09:53:14.138Z,2.93
2023-02-01T09:55:49.653Z,2.93
2023-02-01T09:58:52.365Z,3.86
2023-02-01T10:01:24.650Z,3.92
2023-02-01T10:04:10.201Z,3.84
2023-02-01T10:07:16.611Z,3.70
2023-02-01T10:10:19.683Z,3.22
2023-02-01T10:13:15.378Z,3.25
2023-02-01T10:16:04.969Z,2.98
2023-02-01T10:19:15.873Z,2.92
2023-02-01T10:22:05.977Z,2.84
2023-02-01T10:25:00.240Z,1.94
2023-02-01T10:27:40.966Z,2.74
2023-02-01T10:30:22.634Z,2.84
2023-02-01T10:32:58.007Z,2.53
2023-02-01T10:35:32.356Z,2.51
2023-02-01T10:38:03.743Z,2.89
2023-02-01T10:40:32.687Z,3.01
2023-02-01T10:43:06.100Z,3.13
2023-02-01T10:45:36.174Z,3.12
2023-02-01T10:48:05.290Z,2.85
2023-02-01T10:51:01.404Z,2.78
2023-02-01T10:54:09.780Z,3.19
2023-02-01T10:56:40.280Z,3.03
2023-02-01T10:59:21.883Z,3.40
2023-02-01T11:01:51.735Z,3.39
2023-02-01T11:04:21.926Z,3.42
2023-02-01T11:07:18.084Z,3.47
2023-02-01T11:10:03.057Z,3.66
2023-02-01T11:12:37.442Z,3.81
2023-02-01T11:15:28.073Z,3.87
2023-02-01T11:17:57.639Z,3.68
2023-02-01T11:20:42.132Z,3.80
2023-02-01T11:23:43.669Z,3.87
2023-02-01T11:26:26.463Z,3.85
2023-02-01T11:29:18.932Z,3.80
2023-02-01T11:31:47.647Z,3.68
2023-02-01T11:34:24.525Z,4.05
2023-02-01T11:36:55.726Z,4.09
2023-02-01T11:39:37.655Z,4.00
2023-02-01T11:42:17.449Z,4.32
2023-02-01T11:44:47.780Z,4.44
2023-02-01T11:47:39.420Z,4.40
2023-02-01T11:50:32.521Z,4.39
2023-02-01T11:53:06.370Z,4.32
2023-02-01T11:56:11.258Z,4.08
2023-02-01T11:59:31.121Z,3.96
2023-02-01T12:02:42.588Z,3.90
2023-02-01T12:05:45.393Z,3.62
2023-02-01T12:08:26.043Z,3.69
2023-02-01T12:11:29.644Z,3.55
2023-02-01T12:14:46.057Z,3.52
2023-02-01T12:17:31.254Z,3.12
2023-02-01T12:20:17.968Z,2.95
2023-02-01T12:23:42.428Z,3.08
2023-02-01T12:26:42.159Z,3.01
2023-02-01T12:29:34.717Z,3.01
2023-02-01T12:33:02.452Z,3.07
2023-02-01T12:35:55.680Z,3.21
2023-02-01T12:38:42.271Z,3.32
2023-02-01T12:41:37.767Z,3.37
2023-02-01T12:44:28.527Z,3.47
2023-02-01T12:47:50.130Z,3.34
2023-02-01T12:50:52.593Z,3.38
2023-02-01T12:53:42.653Z,3.37
2023-02-01T12:56:20.203Z,3.28
2023-02-01T12:58:56.967Z,2.80
2023-02-01T13:01:47.440Z,2.76
2023-02-01T13:04:30.588Z,2.73
2023-02-01T13:07:17.832Z,2.37
2023-02-01T13:10:22.826Z,2.06
2023-02-01T13:13:18.871Z,1.41
2023-02-01T13:15:58.905Z,1.59
2023-02-01T13:18:38.240Z,1.54
2023-02-01T13:21:14.170Z,1.25
2023-02-01T13:23:45.394Z,1.69
2023-02-01T13:26:13.942Z,1.62
2023-02-01T13:29:00.876Z,1.86
2023-02-01T13:31:58.893Z,1.88
2023-02-01T13:34:59.738Z,2.02
2023-02-01T13:37:37.037Z,2.09
2023-02-01T13:40:54.007Z,2.12
2023-02-01T13:43:30.593Z,1.99
2023-02-01T13:46:09.206Z,2.23
2023-02-01T13:48:48.263Z,1.94
2023-02-01T13:51:20.227Z,2.11
2023-02-01T13:53:50.312Z,2.33
2023-02-01T13:56:26.759Z,2.44
2023-02-01T13:58:54.942Z,2.44
2023-02-01T14:01:23.768Z,2.44
2023-02-01T14:04:07.666Z,2.47
2023-02-01T14:06:44.417Z,2.42
2023-02-01T14:09:20.521Z,2.07
2023-02-01T14:11:54.722Z,2.34
2023-02-01T14:14:22.759Z,2.32
2023-02-01T14:17:11.572Z,2.35
2023-02-01T14:19:39.728Z,2.40
2023-02-01T14:22:25.435Z,2.42
2023-02-01T14:24:57.610Z,2.06
2023-02-01T14:27:36.228Z,2.41
2023-02-01T14:30:15.615Z,2.43
2023-02-01T14:32:47.724Z,2.38
2023-02-01T14:35:28.547Z,2.41
2023-02-01T14:38:05.300Z,2.53
2023-02-01T14:40:38.240Z,2.58
2023-02-01T14:43:09.246Z,2.58
2023-02-01T14:45:57.602Z,2.51
2023-02-01T14:48:25.707Z,2.59
2023-02-01T14:50:54.014Z,2.47
2023-02-01T14:53:31.457Z,2.52
2023-02-01T14:56:12.895Z,2.70
2023-02-01T14:59:07.510Z,2.65
2023-02-01T15:01:40.195Z,2.63
2023-02-01T15:04:19.765Z,2.60
2023-02-01T15:06:56.677Z,2.46
2023-02-01T15:09:48.245Z,2.51
2023-02-01T15:12:28.099Z,2.39
2023-02-01T15:15:17.740Z,2.43
2023-02-01T15:18:01.256Z,2.08
2023-02-01T15:20:32.840Z,2.35
2023-02-01T15:23:06.879Z,2.24
2023-02-01T15:25:39.850Z,2.14
2023-02-01T15:28:16.324Z,2.11
2023-02-01T15:31:06.906Z,2.19
2023-02-01T15:33:36.561Z,2.19
2023-02-01T15:36:07.831Z,2.20
2023-02-01T15:38:46.179Z,2.25
2023-02-01T15:41:21.771Z,1.97
2023-02-01T15:43:56.561Z,2.15
2023-02-01T15:46:46.570Z,1.88
2023-02-01T15:49:33.260Z,1.92
2023-02-01T15:52:03.226Z,1.99
2023-02-01T15:54:47.368Z,1.68
2023-02-01T15:57:31.595Z,1.95
2023-02-01T16:00:07.938Z,1.95
2023-02-01T16:03:07.188Z,1.95
2023-02-01T16:05:46.157Z,1.88
2023-02-01T16:08:38.488Z,1.85
2023-02-01T16:11:09.376Z,1.81
2023-02-01T16:13:38.390Z,1.71
2023-02-01T16:16:15.196Z,1.47
2023-02-01T16:18:43.926Z,1.60
2023-02-01T16:21:12.233Z,1.22
2023-02-01T16:23:40.877Z,1.74
2023-02-01T16:26:09.529Z,1.48
2023-02-01T16:28:41.744Z,1.83
2023-02-01T16:31:21.154Z,1.88
2023-02-01T16:33:53.493Z,1.92
2023-02-01T16:36:23.161Z,2.05
2023-02-01T16:38:54.477Z,2.06
2023-02-01T16:41:25.587Z,2.03
2023-02-01T16:43:56.478Z,2.04
2023-02-01T16:46:31.492Z,1.93
2023-02-01T16:49:00.997Z,2.03
2023-02-01T16:51:36.002Z,1.90
2023-02-01T16:54:05.696Z,1.98
2023-02-01T16:56:37.275Z,1.21
2023-02-01T16:59:06.460Z,1.59
2023-02-01T17:01:37.698Z,1.84
2023-02-01T17:04:06.920Z,1.83
2023-02-01T17:06:40.125Z,1.90
2023-02-01T17:09:11.575Z,1.84
2023-02-01T17:11:40.050Z,1.57
2023-02-01T17:14:26.490Z,1.93
2023-02-01T17:16:54.805Z,1.89
2023-02-01T17:19:24.860Z,1.88
2023-02-01T17:22:00.359Z,1.55
2023-02-01T17:24:47.711Z,1.80
2023-02-01T17:27:20.090Z,1.62
2023-02-01T17:29:49.321Z,1.83
2023-02-01T17:32:26.156Z,1.52
2023-02-01T17:34:54.959Z,1.80
2023-02-01T17:37:28.603Z,1.77
2023-02-01T17:39:57.021Z,1.74
2023-02-01T17:42:27.992Z,1.30
2023-02-01T17:45:01.463Z,1.78
2023-02-01T17:47:30.143Z,1.53
2023-02-01T17:49:58.605Z,1.78
2023-02-01T17:52:27.697Z,1.77
2023-02-01T17:54:56.304Z,1.68
2023-02-01T17:57:25.179Z,1.69
2023-02-01T17:59:54.259Z,1.43
2023-02-01T18:02:25.556Z,1.57
2023-02-01T18:04:54.017Z,1.22
2023-02-01T18:07:23.807Z,1.55
2023-02-01T18:09:52.816Z,1.21
2023-02-01T18:12:24.113Z,1.45
2023-02-01T18:14:52.567Z,1.57
2023-02-01T18:17:21.313Z,1.61
2023-02-01T18:19:49.647Z,1.59
2023-02-01T18:22:23.455Z,1.61
2023-02-01T18:24:53.264Z,1.41
2023-02-01T18:27:23.018Z,1.63
2023-02-01T18:29:51.955Z,1.63
2023-02-01T18:32:21.720Z,1.60
2023-02-01T18:34:50.605Z,1.70
2023-02-01T18:37:19.722Z,1.65
2023-02-01T18:39:48.333Z,1.67
2023-02-01T18:42:16.944Z,1.76
2023-02-01T18:44:45.754Z,1.35
2023-02-01T18:47:14.300Z,1.54
2023-02-01T18:49:43.241Z,1.67
2023-02-01T18:52:14.069Z,1.53
2023-02-01T18:54:57.679Z,1.46
2023-02-01T18:57:28.712Z,1.73
2023-02-01T18:59:57.749Z,1.77
2023-02-01T19:02:27.103Z,1.56
2023-02-01T19:04:58.573Z,1.73
2023-02-01T19:07:28.251Z,1.62
2023-02-01T19:09:57.589Z,1.72
2023-02-01T19:12:26.690Z,1.68
2023-02-01T19:14:55.257Z,1.53
2023-02-01T19:17:24.830Z,1.64
2023-02-01T19:19:55.049Z,1.80
2023-02-01T19:22:28.351Z,1.83
2023-02-01T19:24:57.518Z,1.85
2023-02-01T19:27:27.568Z,1.77
2023-02-01T19:29:56.987Z,1.85
2023-02-01T19:32:27.340Z,1.55
2023-02-01T19:34:56.858Z,1.88
2023-02-01T19:37:27.252Z,1.87
2023-02-01T19:39:56.890Z,1.77
2023-02-01T19:42:29.373Z,1.89
2023-02-01T19:44:58.507Z,1.84
2023-02-01T19:47:27.659Z,1.76
2023-02-01T19:49:57.159Z,1.82
2023-02-01T19:52:27.410Z,1.60
2023-02-01T19:54:57.126Z,1.96
2023-02-01T19:57:29.779Z,1.68
2023-02-01T20:00:03.838Z,1.98
2023-02-01T20:02:32.732Z,1.95
2023-02-01T20:05:02.196Z,1.70
2023-02-01T20:07:32.431Z,1.65
2023-02-01T20:10:04.397Z,1.86
2023-02-01T20:12:34.863Z,1.89
2023-02-01T20:15:05.382Z,1.76
2023-02-01T20:17:36.310Z,1.64
2023-02-01T20:20:05.903Z,1.56
2023-02-01T20:22:35.175Z,1.95
2023-02-01T20:25:05.270Z,1.66
2023-02-01T20:27:38.017Z,1.68
2023-02-01T20:30:07.812Z,1.92
2023-02-01T20:32:37.221Z,1.68
2023-02-01T20:35:07.679Z,1.90
2023-02-01T20:37:38.407Z,1.58
2023-02-01T20:40:08.302Z,1.71
2023-02-01T20:42:42.104Z,1.88
2023-02-01T20:45:11.874Z,1.85
2023-02-01T20:47:42.959Z,1.61
2023-02-01T20:50:12.867Z,1.79
2023-02-01T20:52:42.918Z,1.76
2023-02-01T20:55:12.322Z,1.76
2023-02-01T20:57:41.587Z,1.71
2023-02-01T21:00:12.001Z,0.69
2023-02-01T21:02:40.941Z,1.59
2023-02-01T21:05:10.767Z,1.71
2023-02-01T21:07:40.706Z,1.73
2023-02-01T21:10:12.609Z,1.75
2023-02-01T21:12:42.671Z,1.72
2023-02-01T21:15:14.568Z,1.76
2023-02-01T21:17:46.434Z,0.99
2023-02-01T21:20:21.203Z,1.79
2023-02-01T21:22:51.125Z,1.80
2023-02-01T21:25:20.753Z,1.50
2023-02-01T21:27:51.586Z,1.73
2023-02-01T21:30:23.795Z,1.62
2023-02-01T21:32:52.864Z,1.83
2023-02-01T21:35:27.148Z,1.76
2023-02-01T21:37:56.259Z,1.72
2023-02-01T21:40:26.764Z,1.71
2023-02-01T21:42:56.719Z,0.77
2023-02-01T21:45:29.428Z,1.72
2023-02-01T21:48:00.022Z,1.74
2023-02-01T21:50:30.385Z,1.75
2023-02-01T21:53:01.895Z,1.73
2023-02-01T21:55:30.997Z,1.77
2023-02-01T21:58:00.708Z,1.73
2023-02-01T22:00:32.104Z,1.70
2023-02-01T22:03:01.606Z,1.41
2023-02-01T22:05:31.196Z,1.63
2023-02-01T22:08:01.360Z,1.62
2023-02-01T22:10:31.504Z,1.69
2023-02-01T22:13:00.018Z,1.38
2023-02-01T22:15:30.028Z,1.69
2023-02-01T22:17:59.187Z,1.42
2023-02-01T22:20:29.253Z,1.58
2023-02-01T22:22:58.553Z,1.67
2023-02-01T22:25:29.638Z,1.65
2023-02-01T22:28:32.925Z,1.66
2023-02-01T22:30:49.707Z,1.35
2023-02-01T22:33:19.826Z,1.38
2023-02-01T22:35:50.948Z,1.47
2023-02-01T22:38:20.661Z,1.53
2023-02-01T22:41:05.882Z,1.43
2023-02-01T22:43:35.622Z,1.49
2023-02-01T22:46:08.928Z,1.16
2023-02-01T22:48:43.430Z,1.42
2023-02-01T22:51:23.285Z,1.46
2023-02-01T22:53:58.412Z,1.40
2023-02-01T22:56:36.765Z,1.39
2023-02-01T22:59:08.226Z,1.40
2023-02-01T23:01:41.086Z,1.40
2023-02-01T23:04:14.243Z,1.36
2023-02-01T23:06:43.645Z,1.03
2023-02-01T23:09:21.303Z,1.27
2023-02-01T23:11:51.668Z,1.24
2023-02-01T23:14:21.160Z,0.75
2023-02-01T23:16:50.657Z,1.00
2023-02-01T23:19:20.634Z,1.28
2023-02-01T23:21:49.721Z,1.34
2023-02-01T23:24:18.012Z,0.97
2023-02-01T23:26:46.318Z,1.46
2023-02-01T23:29:18.669Z,1.53
2023-02-01T23:31:47.125Z,1.48
2023-02-01T23:34:15.301Z,1.17
2023-02-01T23:36:43.840Z,1.44
2023-02-01T23:39:12.053Z,1.23
2023-02-01T23:41:40.299Z,1.29
2023-02-01T23:44:08.535Z,1.25
2023-02-01T23:46:44.882Z,0.95
2023-02-01T23:49:15.708Z,1.25
2023-02-01T23:51:45.366Z,1.15
2023-02-01T23:54:13.778Z,1.19
2023-02-01T23:56:45.451Z,0.96
2023-02-01T23:59:18.698Z,0.97
